createdAt,value
2023-05-10T00:01:12.948Z,56.09
2023-05-10T00:03:39.479Z,56.09
2023-05-10T00:06:06.131Z,56.40
2023-05-10T00:08:32.598Z,56.40
2023-05-10T00:10:59.009Z,56.35
2023-05-10T00:13:25.636Z,56.58
2023-05-10T00:15:52.164Z,56.44
2023-05-10T00:18:18.593Z,56.60
2023-05-10T00:20:46.968Z,56.68
2023-05-10T00:23:13.717Z,56.74
2023-05-10T00:25:40.149Z,56.86
2023-05-10T00:28:06.630Z,57.27
2023-05-10T00:30:33.200Z,57.25
2023-05-10T00:32:59.674Z,57.68
2023-05-10T00:35:27.015Z,58.01
2023-05-10T00:37:53.466Z,58.41
2023-05-10T00:40:19.913Z,58.74
2023-05-10T00:42:46.400Z,59.30
2023-05-10T00:45:13.024Z,59.65
2023-05-10T00:47:40.283Z,59.99
2023-05-10T00:50:07.556Z,60.51
2023-05-10T00:52:34.173Z,60.60
2023-05-10T00:55:01.178Z,61.00
2023-05-10T00:57:28.009Z,61.25
2023-05-10T00:59:54.575Z,61.50
2023-05-10T01:02:21.057Z,61.54
2023-05-10T01:04:48.298Z,61.67
2023-05-10T01:07:14.855Z,61.65
2023-05-10T01:09:41.401Z,61.83
2023-05-10T01:12:08.648Z,62.07
2023-05-10T01:14:37.421Z,62.19
2023-05-10T01:17:06.085Z,62.58
2023-05-10T01:19:35.972Z,62.78
2023-05-10T01:22:14.402Z,62.86
2023-05-10T01:25:12.154Z,63.28
2023-05-10T01:27:47.731Z,63.63
2023-05-10T01:30:39.235Z,63.67
2023-05-10T01:33:15.056Z,63.70
2023-05-10T01:35:48.846Z,63.88
2023-05-10T01:38:18.210Z,63.81
2023-05-10T01:41:07.907Z,63.89
2023-05-10T01:43:43.098Z,64.05
2023-05-10T01:46:13.894Z,64.25
2023-05-10T01:48:48.073Z,64.13
2023-05-10T01:51:20.599Z,64.40
2023-05-10T01:53:49.772Z,64.50
2023-05-10T01:56:17.914Z,64.75
2023-05-10T01:58:48.351Z,64.90
2023-05-10T02:01:16.298Z,65.19
2023-05-10T02:03:44.650Z,65.47
2023-05-10T02:06:13.680Z,65.68
2023-05-10T02:08:41.053Z,65.93
2023-05-10T02:11:08.968Z,66.32
2023-05-10T02:13:38.167Z,66.44
2023-05-10T02:16:06.327Z,66.74
2023-05-10T02:18:34.645Z,67.14
2023-05-10T02:21:02.746Z,67.45
2023-05-10T02:23:30.287Z,67.76
2023-05-10T02:25:59.017Z,68.06
2023-05-10T02:28:28.376Z,68.37
2023-05-10T02:30:56.237Z,68.49
2023-05-10T02:33:23.470Z,68.74
2023-05-10T02:35:51.815Z,68.95
2023-05-10T02:38:21.241Z,68.99
2023-05-10T02:40:48.869Z,69.39
2023-05-10T02:43:17.413Z,69.34
2023-05-10T02:45:44.924Z,69.61
2023-05-10T02:48:11.470Z,69.80
2023-05-10T02:50:42.985Z,69.94
2023-05-10T02:53:18.458Z,69.94
2023-05-10T02:55:50.124Z,70.21
2023-05-10T02:58:16.619Z,70.71
2023-05-10T03:00:43.127Z,70.61
2023-05-10T03:03:09.636Z,70.95
2023-05-10T03:05:36.085Z,70.94
2023-05-10T03:08:05.137Z,71.08
2023-05-10T03:10:33.547Z,71.13
2023-05-10T03:13:08.658Z,71.27
2023-05-10T03:16:03.726Z,71.26
2023-05-10T03:19:12.889Z,71.31
2023-05-10T03:21:45.520Z,71.51
2023-05-10T03:24:13.590Z,71.58
2023-05-10T03:26:41.336Z,71.77
2023-05-10T03:29:10.369Z,71.88
2023-05-10T03:31:37.014Z,72.19
2023-05-10T03:34:03.620Z,72.60
2023-05-10T03:36:30.158Z,72.52
2023-05-10T03:38:56.653Z,72.90
2023-05-10T03:41:23.077Z,73.13
2023-05-10T03:43:49.827Z,73.53
2023-05-10T03:46:16.253Z,73.80
2023-05-10T03:48:43.004Z,74.04
2023-05-10T03:51:09.494Z,74.48
2023-05-10T03:53:36.545Z,74.64
2023-05-10T03:56:03.125Z,75.20
2023-05-10T03:58:29.662Z,75.34
2023-05-10T04:00:56.336Z,75.41
2023-05-10T04:03:23.111Z,75.93
2023-05-10T04:05:49.673Z,76.15
2023-05-10T04:08:17.588Z,76.57
2023-05-10T04:10:44.442Z,76.60
2023-05-10T04:13:11.206Z,76.81
2023-05-10T04:15:37.624Z,77.04
2023-05-10T04:18:05.579Z,77.27
2023-05-10T04:20:34.172Z,77.35
2023-05-10T04:23:00.829Z,77.37
2023-05-10T04:25:27.218Z,77.66
2023-05-10T04:27:53.622Z,77.87
2023-05-10T04:30:20.165Z,77.91
2023-05-10T04:32:46.718Z,78.02
2023-05-10T04:35:13.254Z,78.13
2023-05-10T04:37:39.801Z,78.43
2023-05-10T04:40:07.133Z,78.52
2023-05-10T04:42:34.067Z,78.69
2023-05-10T04:45:00.651Z,78.80
2023-05-10T04:47:27.461Z,79.13
2023-05-10T04:49:53.915Z,79.55
2023-05-10T04:52:20.565Z,79.97
2023-05-10T04:54:46.984Z,80.22
2023-05-10T04:57:13.431Z,80.41
2023-05-10T04:59:40.036Z,80.87
2023-05-10T05:02:06.791Z,80.98
2023-05-10T05:04:33.363Z,81.26
2023-05-10T05:06:59.929Z,81.49
2023-05-10T05:09:26.373Z,81.78
2023-05-10T05:11:52.887Z,81.79
2023-05-10T05:14:21.719Z,82.03
2023-05-10T05:16:48.392Z,82.30
2023-05-10T05:19:14.959Z,82.56
2023-05-10T05:21:41.517Z,82.83
2023-05-10T05:24:09.037Z,83.46
2023-05-10T05:26:35.705Z,83.60
2023-05-10T05:29:02.476Z,83.56
2023-05-10T05:31:29.054Z,83.96
2023-05-10T05:33:56.419Z,84.25
2023-05-10T05:36:23.187Z,84.82
2023-05-10T05:38:49.674Z,85.26
2023-05-10T05:41:16.332Z,85.61
2023-05-10T05:43:42.835Z,86.02
2023-05-10T05:46:09.387Z,85.88
2023-05-10T05:48:36.333Z,85.79
2023-05-10T05:51:03.434Z,85.59
2023-05-10T05:53:31.177Z,85.65
2023-05-10T05:55:59.582Z,85.35
2023-05-10T05:58:26.962Z,85.24
2023-05-10T06:00:54.278Z,85.44
2023-05-10T06:03:21.203Z,85.71
2023-05-10T06:05:48.259Z,86.06
2023-05-10T06:08:14.774Z,86.31
2023-05-10T06:10:41.200Z,86.76
2023-05-10T06:13:07.781Z,87.26
2023-05-10T06:15:34.347Z,87.88
2023-05-10T06:18:00.999Z,88.29
2023-05-10T06:20:27.952Z,88.61
2023-05-10T06:22:54.460Z,89.03
2023-05-10T06:25:21.152Z,88.94
2023-05-10T06:27:51.760Z,88.76
2023-05-10T06:30:20.020Z,88.70
2023-05-10T06:32:47.150Z,88.48
2023-05-10T06:35:13.866Z,88.64
2023-05-10T06:37:40.790Z,88.73
2023-05-10T06:40:07.873Z,88.91
2023-05-10T06:42:34.276Z,88.66
2023-05-10T06:45:00.966Z,88.72
2023-05-10T06:47:27.473Z,88.60
2023-05-10T06:49:53.947Z,88.52
2023-05-10T06:52:20.524Z,89.42
2023-05-10T06:54:47.314Z,89.47
2023-05-10T06:57:27.688Z,89.22
2023-05-10T06:59:58.448Z,89.15
2023-05-10T07:02:24.941Z,88.86
2023-05-10T07:04:52.934Z,89.55
2023-05-10T07:07:19.910Z,89.63
2023-05-10T07:09:46.778Z,89.34
2023-05-10T07:12:15.285Z,89.79
2023-05-10T07:14:42.826Z,89.98
2023-05-10T07:17:09.481Z,89.97
2023-05-10T07:19:36.364Z,90.46
2023-05-10T07:22:02.854Z,90.56
2023-05-10T07:24:29.599Z,90.66
2023-05-10T07:26:56.153Z,91.16
2023-05-10T07:29:22.662Z,91.37
2023-05-10T07:31:49.195Z,91.83
2023-05-10T07:34:15.964Z,91.68
2023-05-10T07:36:42.699Z,91.84
2023-05-10T07:39:09.524Z,91.79
2023-05-10T07:41:36.289Z,92.23
2023-05-10T07:44:02.853Z,92.21
2023-05-10T07:46:29.573Z,92.54
2023-05-10T07:48:56.510Z,92.94
2023-05-10T07:51:23.188Z,93.29
2023-05-10T07:53:50.463Z,93.74
2023-05-10T07:56:24.109Z,94.32
2023-05-10T07:58:50.641Z,94.63
2023-05-10T08:01:17.133Z,95.10
2023-05-10T08:03:43.891Z,95.48
2023-05-10T08:06:10.535Z,95.82
2023-05-10T08:08:37.027Z,96.62
2023-05-10T08:11:04.584Z,96.94
2023-05-10T08:13:32.401Z,97.83
2023-05-10T08:15:59.360Z,98.94
2023-05-10T08:18:26.123Z,99.82
2023-05-10T08:20:52.648Z,99.94
2023-05-10T08:23:19.231Z,100.00
2023-05-10T08:25:45.938Z,100.00
2023-05-10T08:28:12.382Z,100.00
2023-05-10T08:30:39.463Z,100.00
2023-05-10T08:33:06.004Z,100.00
2023-05-10T08:35:34.148Z,100.00
2023-05-10T08:38:00.733Z,100.00
2023-05-10T08:40:27.872Z,100.00
2023-05-10T08:43:09.980Z,100.00
2023-05-10T08:45:42.883Z,100.00
2023-05-10T08:48:11.240Z,100.00
2023-05-10T08:50:39.281Z,100.00
2023-05-10T08:53:10.342Z,100.00
2023-05-10T08:55:41.192Z,100.00
2023-05-10T08:58:08.133Z,100.00
2023-05-10T09:00:36.009Z,100.00
2023-05-10T09:03:05.121Z,100.00
2023-05-10T09:05:32.051Z,100.00
2023-05-10T09:08:01.449Z,100.00
2023-05-10T09:10:29.036Z,100.00
2023-05-10T09:12:59.389Z,100.00
2023-05-10T09:15:26.788Z,100.00
2023-05-10T09:17:53.904Z,100.00
2023-05-10T09:20:20.617Z,100.00
2023-05-10T09:22:47.576Z,100.00
2023-05-10T09:25:16.525Z,100.00
2023-05-10T09:27:48.004Z,100.00
2023-05-10T09:30:26.627Z,100.00
2023-05-10T09:32:53.717Z,100.00
2023-05-10T09:35:22.734Z,100.00
2023-05-10T09:37:52.370Z,100.00
2023-05-10T09:40:20.932Z,100.00
2023-05-10T09:42:59.223Z,100.00
2023-05-10T09:45:28.037Z,98.99
2023-05-10T09:47:54.944Z,98.58
2023-05-10T09:50:22.276Z,98.87
2023-05-10T09:53:00.033Z,98.62
2023-05-10T09:55:39.088Z,98.73
2023-05-10T09:58:10.482Z,98.22
2023-05-10T10:00:39.276Z,97.89
2023-05-10T10:03:06.805Z,97.13
2023-05-10T10:05:35.857Z,96.86
2023-05-10T10:08:05.373Z,96.55
2023-05-10T10:10:32.981Z,95.48
2023-05-10T10:13:00.624Z,94.28
2023-05-10T10:15:27.807Z,94.08
2023-05-10T10:17:54.952Z,93.48
2023-05-10T10:20:23.611Z,93.42
2023-05-10T10:22:50.408Z,93.40
2023-05-10T10:25:19.194Z,92.39
2023-05-10T10:27:55.015Z,92.35
2023-05-10T10:30:46.976Z,92.63
2023-05-10T10:33:40.734Z,92.13
2023-05-10T10:36:08.085Z,91.94
2023-05-10T10:39:02.116Z,90.80
2023-05-10T10:41:31.695Z,89.70
2023-05-10T10:44:34.439Z,89.27
2023-05-10T10:47:04.630Z,87.88
2023-05-10T10:49:42.965Z,87.07
2023-05-10T10:52:21.439Z,87.28
2023-05-10T10:55:00.051Z,86.69
2023-05-10T10:57:27.671Z,85.13
2023-05-10T11:00:21.995Z,84.12
2023-05-10T11:03:19.499Z,83.18
2023-05-10T11:05:50.332Z,83.07
2023-05-10T11:08:46.051Z,82.09
2023-05-10T11:11:15.826Z,80.96
2023-05-10T11:13:50.056Z,78.77
2023-05-10T11:16:21.540Z,77.37
2023-05-10T11:19:06.021Z,76.44
2023-05-10T11:21:33.698Z,76.45
2023-05-10T11:24:02.035Z,76.43
2023-05-10T11:26:33.676Z,75.20
2023-05-10T11:29:01.675Z,75.19
2023-05-10T11:31:29.163Z,75.41
2023-05-10T11:33:57.563Z,75.65
2023-05-10T11:36:34.261Z,75.02
2023-05-10T11:39:00.859Z,71.69
2023-05-10T11:41:29.765Z,70.69
2023-05-10T11:43:57.450Z,70.96
2023-05-10T11:46:27.740Z,70.61
2023-05-10T11:49:01.601Z,68.60
2023-05-10T11:51:28.511Z,67.77
2023-05-10T11:53:56.121Z,66.72
2023-05-10T11:56:22.890Z,66.67
2023-05-10T11:58:57.186Z,66.07
2023-05-10T12:01:27.823Z,66.35
2023-05-10T12:04:00.765Z,65.94
2023-05-10T12:06:29.567Z,65.49
2023-05-10T12:08:56.318Z,64.37
2023-05-10T12:11:26.523Z,63.98
2023-05-10T12:13:54.062Z,62.44
2023-05-10T12:16:22.403Z,62.31
2023-05-10T12:18:58.978Z,60.38
2023-05-10T12:21:26.544Z,60.02
2023-05-10T12:23:55.440Z,58.30
2023-05-10T12:26:27.270Z,55.33
2023-05-10T12:29:12.125Z,53.88
2023-05-10T12:31:56.381Z,53.92
2023-05-10T12:34:37.023Z,52.11
2023-05-10T12:37:04.504Z,52.06
2023-05-10T12:39:41.064Z,53.19
2023-05-10T12:42:07.649Z,53.61
2023-05-10T12:44:34.442Z,55.08
2023-05-10T12:47:00.906Z,54.65
2023-05-10T12:49:27.488Z,54.08
2023-05-10T12:51:54.025Z,54.33
2023-05-10T12:54:20.510Z,54.65
2023-05-10T12:56:47.101Z,54.83
2023-05-10T12:59:13.521Z,55.61
2023-05-10T13:01:40.067Z,56.61
2023-05-10T13:04:06.615Z,55.93
2023-05-10T13:06:33.063Z,56.23
2023-05-10T13:08:59.517Z,56.54
2023-05-10T13:11:26.063Z,57.95
2023-05-10T13:13:52.635Z,59.78
2023-05-10T13:16:19.238Z,60.54
2023-05-10T13:18:45.784Z,60.26
2023-05-10T13:21:12.301Z,59.51
2023-05-10T13:23:38.689Z,59.41
2023-05-10T13:26:05.515Z,58.95
2023-05-10T13:28:32.100Z,57.98
2023-05-10T13:30:58.659Z,57.70
2023-05-10T13:33:25.180Z,57.72
2023-05-10T13:35:53.185Z,56.85
2023-05-10T13:38:22.390Z,57.48
2023-05-10T13:40:49.088Z,57.62
2023-05-10T13:43:16.199Z,57.13
2023-05-10T13:45:42.956Z,58.28
2023-05-10T13:48:09.534Z,59.02
2023-05-10T13:50:36.141Z,59.21
2023-05-10T13:53:02.688Z,58.38
2023-05-10T13:55:29.687Z,59.41
2023-05-10T13:57:56.318Z,60.36
2023-05-10T14:00:22.788Z,61.04
2023-05-10T14:02:49.411Z,61.18
2023-05-10T14:05:17.062Z,61.20
2023-05-10T14:07:44.710Z,60.69
2023-05-10T14:10:11.425Z,60.21
2023-05-10T14:12:37.978Z,60.09
2023-05-10T14:15:06.808Z,60.75
2023-05-10T14:17:33.358Z,60.92
2023-05-10T14:19:59.870Z,62.24
2023-05-10T14:22:26.401Z,62.19
2023-05-10T14:24:52.918Z,62.16
2023-05-10T14:27:19.517Z,62.42
2023-05-10T14:29:46.168Z,62.30
2023-05-10T14:32:12.877Z,62.90
2023-05-10T14:34:39.470Z,63.30
2023-05-10T14:37:06.097Z,63.01
2023-05-10T14:39:32.734Z,62.45
2023-05-10T14:41:59.533Z,61.45
2023-05-10T14:44:26.058Z,61.18
2023-05-10T14:46:52.914Z,61.23
2023-05-10T14:49:19.373Z,61.55
2023-05-10T14:51:46.612Z,61.29
2023-05-10T14:54:13.075Z,60.96
2023-05-10T14:56:39.605Z,61.76
2023-05-10T14:59:06.232Z,61.70
2023-05-10T15:01:34.006Z,62.50
2023-05-10T15:04:01.072Z,63.28
2023-05-10T15:06:32.833Z,63.92
2023-05-10T15:08:59.547Z,64.46
2023-05-10T15:11:26.242Z,65.51
2023-05-10T15:13:52.784Z,66.05
2023-05-10T15:16:19.409Z,67.12
2023-05-10T15:18:46.328Z,67.81
2023-05-10T15:21:13.690Z,68.79
2023-05-10T15:23:40.697Z,69.72
2023-05-10T15:26:07.303Z,70.52
2023-05-10T15:28:34.348Z,71.20
2023-05-10T15:31:01.735Z,71.55
2023-05-10T15:33:28.485Z,72.25
2023-05-10T15:35:55.199Z,72.58
2023-05-10T15:38:21.846Z,72.81
2023-05-10T15:40:48.669Z,72.95
2023-05-10T15:43:16.120Z,73.24
2023-05-10T15:45:42.810Z,73.53
2023-05-10T15:48:09.439Z,73.82
2023-05-10T15:50:35.935Z,74.33
2023-05-10T15:53:02.460Z,74.76
2023-05-10T15:55:28.940Z,75.35
2023-05-10T15:57:55.637Z,75.95
2023-05-10T16:00:22.212Z,76.44
2023-05-10T16:02:49.104Z,76.98
2023-05-10T16:05:16.925Z,77.77
2023-05-10T16:07:44.026Z,78.57
2023-05-10T16:10:11.448Z,79.68
2023-05-10T16:12:38.717Z,81.37
2023-05-10T16:15:06.049Z,82.67
2023-05-10T16:17:33.070Z,82.50
2023-05-10T16:20:01.257Z,82.64
2023-05-10T16:22:28.756Z,83.75
2023-05-10T16:24:56.743Z,84.75
2023-05-10T16:27:23.265Z,85.48
2023-05-10T16:29:49.715Z,86.33
2023-05-10T16:32:16.263Z,87.12
2023-05-10T16:34:42.862Z,88.20
2023-05-10T16:37:09.837Z,88.41
2023-05-10T16:39:36.617Z,88.57
2023-05-10T16:42:03.162Z,89.02
2023-05-10T16:44:29.622Z,89.48
2023-05-10T16:46:56.457Z,89.80
2023-05-10T16:49:24.496Z,89.91
2023-05-10T16:51:52.531Z,90.29
2023-05-10T16:54:19.194Z,90.41
2023-05-10T16:56:45.829Z,91.06
2023-05-10T16:59:12.459Z,91.75
2023-05-10T17:01:39.038Z,92.01
2023-05-10T17:04:06.021Z,91.87
2023-05-10T17:06:32.830Z,92.12
2023-05-10T17:09:00.951Z,93.17
2023-05-10T17:11:27.657Z,93.29
2023-05-10T17:13:54.154Z,93.40
2023-05-10T17:16:21.294Z,93.71
2023-05-10T17:18:48.231Z,93.72
2023-05-10T17:21:14.657Z,94.13
2023-05-10T17:23:41.626Z,93.94
2023-05-10T17:26:08.385Z,93.86
2023-05-10T17:28:34.868Z,93.76
2023-05-10T17:31:02.211Z,93.71
2023-05-10T17:33:28.704Z,93.70
2023-05-10T17:35:56.389Z,93.73
2023-05-10T17:38:23.027Z,94.19
2023-05-10T17:40:49.517Z,93.89
2023-05-10T17:43:16.163Z,94.52
2023-05-10T17:45:44.081Z,94.58
2023-05-10T17:48:11.464Z,94.44
2023-05-10T17:50:38.301Z,94.45
2023-05-10T17:53:04.909Z,94.54
2023-05-10T17:55:33.393Z,94.85
2023-05-10T17:58:00.031Z,94.73
2023-05-10T18:00:26.645Z,94.81
2023-05-10T18:02:53.187Z,94.78
2023-05-10T18:05:20.080Z,94.41
2023-05-10T18:07:47.166Z,94.40
2023-05-10T18:10:13.663Z,94.25
2023-05-10T18:12:40.696Z,94.28
2023-05-10T18:15:07.620Z,94.21
2023-05-10T18:17:35.005Z,94.19
2023-05-10T18:20:02.197Z,94.28
2023-05-10T18:22:28.931Z,94.08
2023-05-10T18:24:55.426Z,93.93
2023-05-10T18:27:21.958Z,94.05
2023-05-10T18:29:48.676Z,94.37
2023-05-10T18:32:15.182Z,94.36
2023-05-10T18:34:41.754Z,94.63
2023-05-10T18:37:09.581Z,94.81
2023-05-10T18:39:37.240Z,94.94
2023-05-10T18:42:05.227Z,95.13
2023-05-10T18:44:32.114Z,95.48
2023-05-10T18:46:59.315Z,95.60
2023-05-10T18:49:27.428Z,95.72
2023-05-10T18:51:53.973Z,95.82
2023-05-10T18:54:20.685Z,96.08
2023-05-10T18:56:48.682Z,96.09
2023-05-10T18:59:15.626Z,96.22
2023-05-10T19:01:42.388Z,96.23
2023-05-10T19:04:09.295Z,96.30
2023-05-10T19:06:36.206Z,96.69
2023-05-10T19:09:03.560Z,97.26
2023-05-10T19:11:32.185Z,97.72
2023-05-10T19:13:58.719Z,98.28
2023-05-10T19:16:27.515Z,98.70
2023-05-10T19:18:55.259Z,99.07
2023-05-10T19:21:24.196Z,99.41
2023-05-10T19:23:51.261Z,99.69
2023-05-10T19:26:18.547Z,99.87
2023-05-10T19:28:45.293Z,99.94
2023-05-10T19:31:12.331Z,99.97
2023-05-10T19:33:38.804Z,99.96
2023-05-10T19:36:05.802Z,99.90
2023-05-10T19:38:34.042Z,99.96
2023-05-10T19:41:00.639Z,100.00
2023-05-10T19:43:28.828Z,100.00
2023-05-10T19:45:58.799Z,100.00
2023-05-10T19:48:25.817Z,100.00
2023-05-10T19:50:53.313Z,100.00
2023-05-10T19:53:19.974Z,100.00
2023-05-10T19:55:46.423Z,100.00
2023-05-10T19:58:13.302Z,99.98
2023-05-10T20:00:39.744Z,100.00
2023-05-10T20:21:46.597Z,100.00
2023-05-10T20:24:13.023Z,100.00
2023-05-10T20:26:39.394Z,100.00
2023-05-10T20:29:05.856Z,100.00
2023-05-10T20:31:32.276Z,100.00
2023-05-10T20:33:58.792Z,100.00
2023-05-10T20:36:25.237Z,100.00
2023-05-10T20:38:51.799Z,100.00
2023-05-10T20:41:18.253Z,100.00
2023-05-10T20:43:44.678Z,100.00
2023-05-10T20:46:11.545Z,100.00
2023-05-10T20:48:38.003Z,100.00
2023-05-10T20:51:04.584Z,100.00
2023-05-10T20:53:31.047Z,100.00
2023-05-10T20:55:57.432Z,100.00
2023-05-10T20:58:23.890Z,100.00
2023-05-10T21:00:50.433Z,100.00
2023-05-10T21:03:16.869Z,100.00
2023-05-10T21:05:43.261Z,100.00
2023-05-10T21:08:09.665Z,100.00
2023-05-10T21:10:36.123Z,100.00
2023-05-10T21:13:02.548Z,100.00
2023-05-10T21:15:29.111Z,100.00
2023-05-10T21:17:55.651Z,100.00
2023-05-10T21:20:23.473Z,100.00
2023-05-10T21:22:49.933Z,100.00
2023-05-10T21:25:17.249Z,100.00
2023-05-10T21:27:43.726Z,100.00
2023-05-10T21:30:10.531Z,100.00
2023-05-10T21:32:37.195Z,100.00
2023-05-10T21:35:04.383Z,100.00
2023-05-10T21:37:30.974Z,100.00
2023-05-10T21:39:57.501Z,100.00
2023-05-10T21:42:24.018Z,100.00
2023-05-10T21:44:50.449Z,100.00
2023-05-10T21:47:17.294Z,100.00
2023-05-10T21:49:43.747Z,100.00
2023-05-10T21:52:10.135Z,100.00
2023-05-10T21:54:37.311Z,100.00
2023-05-10T21:57:03.873Z,100.00
2023-05-10T21:59:30.300Z,100.00
2023-05-10T22:01:56.802Z,100.00
2023-05-10T22:04:23.678Z,100.00
2023-05-10T22:06:50.480Z,100.00
2023-05-10T22:09:18.777Z,100.00
2023-05-10T22:11:47.061Z,100.00
2023-05-10T22:14:13.457Z,100.00
2023-05-10T22:16:39.948Z,100.00
2023-05-10T22:19:06.614Z,100.00
2023-05-10T22:21:33.189Z,100.00
2023-05-10T22:23:59.868Z,100.00
2023-05-10T22:26:27.894Z,100.00
2023-05-10T22:28:54.396Z,100.00
2023-05-10T22:31:21.462Z,100.00
2023-05-10T22:33:47.960Z,100.00
2023-05-10T22:36:15.190Z,100.00
2023-05-10T22:38:41.605Z,100.00
2023-05-10T22:41:08.097Z,100.00
2023-05-10T22:43:34.612Z,100.00
2023-05-10T22:46:01.123Z,100.00
2023-05-10T22:48:28.551Z,100.00
2023-05-10T22:50:55.034Z,100.00
2023-05-10T22:53:21.498Z,100.00
2023-05-10T22:55:48.155Z,100.00
2023-05-10T22:58:15.683Z,100.00
2023-05-10T23:00:42.106Z,100.00
2023-05-10T23:03:08.637Z,100.00
2023-05-10T23:05:35.221Z,100.00
2023-05-10T23:08:01.686Z,100.00
2023-05-10T23:10:28.146Z,100.00
2023-05-10T23:12:55.977Z,100.00
2023-05-10T23:15:22.591Z,100.00
2023-05-10T23:17:49.142Z,100.00
2023-05-10T23:20:15.892Z,100.00
2023-05-10T23:22:42.568Z,100.00
2023-05-10T23:25:09.525Z,100.00
2023-05-10T23:27:35.896Z,100.00
2023-05-10T23:30:03.348Z,100.00
2023-05-10T23:32:29.811Z,100.00
2023-05-10T23:34:56.558Z,100.00
2023-05-10T23:37:23.050Z,100.00
2023-05-10T23:39:49.544Z,100.00
2023-05-10T23:42:16.525Z,100.00
2023-05-10T23:44:42.928Z,100.00
2023-05-10T23:47:09.494Z,100.00
2023-05-10T23:49:36.365Z,100.00
2023-05-10T23:52:02.767Z,100.00
2023-05-10T23:54:29.338Z,100.00
2023-05-10T23:56:55.869Z,100.00
2023-05-10T23:59:22.264Z,100.00
